Time;durP1;ratioP1;P1;durP2;ratioP2;P2;SDS_P1;SDS_P2;PMS_P1;PMS_P2;Temp;Humidity;BMP_temperature;BMP_pressure;BME280_temperature;BME280_humidity;BME280_pressure;Samples;Min_cycle;Max_cycle;Signal;HPM_P1;HPM_P2
2021/05/12 00:00:26;;;;;;;4.35;2.60;;;13.60;99.90;;;;;;4985126;28;20177;-78
2021/05/12 00:02:52;;;;;;;2.83;2.50;;;13.60;99.90;;;;;;4986612;28;20219;-77
2021/05/12 00:05:21;;;;;;;4.13;3.10;;;13.60;99.90;;;;;;4985483;28;20187;-77
2021/05/12 00:07:47;;;;;;;3.38;3.03;;;13.60;99.90;;;;;;4984117;28;20208;-77
2021/05/12 00:10:13;;;;;;;4.10;2.85;;;13.60;99.90;;;;;;4983753;28;20185;-78
2021/05/12 00:12:40;;;;;;;4.30;3.30;;;13.60;99.90;;;;;;4983667;28;20181;-77
2021/05/12 00:15:08;;;;;;;3.85;2.90;;;13.70;99.90;;;;;;4984159;28;20200;-78
2021/05/12 00:17:36;;;;;;;3.95;3.50;;;13.60;99.90;;;;;;4979317;28;20201;-75
2021/05/12 00:20:04;;;;;;;4.15;2.75;;;13.70;99.90;;;;;;4984136;28;20692;-76
2021/05/12 00:22:47;;;;;;;4.20;3.13;;;13.70;99.90;;;;;;4984088;28;20566;-76
2021/05/12 00:25:13;;;;;;;3.22;2.60;;;13.60;99.90;;;;;;4981662;28;20180;-77
2021/05/12 00:27:39;;;;;;;4.68;3.60;;;13.70;99.90;;;;;;4981474;28;20614;-76
2021/05/12 00:30:12;;;;;;;6.07;4.13;;;13.60;99.90;;;;;;4973558;28;20189;-77
2021/05/12 00:32:37;;;;;;;4.90;3.50;;;13.60;99.90;;;;;;4980146;28;20412;-78
2021/05/12 00:35:04;;;;;;;5.68;4.20;;;13.60;99.90;;;;;;4982432;28;20199;-77
2021/05/12 00:37:30;;;;;;;4.38;3.60;;;13.50;99.90;;;;;;4982092;28;20192;-77
2021/05/12 00:39:55;;;;;;;5.15;3.58;;;13.50;99.90;;;;;;4979573;28;20188;-78
2021/05/12 00:42:21;;;;;;;5.22;3.72;;;13.50;99.90;;;;;;4982371;28;20184;-76
2021/05/12 00:44:47;;;;;;;6.10;3.60;;;13.50;99.90;;;;;;4983937;28;20271;-78
2021/05/12 00:47:12;;;;;;;5.07;3.33;;;13.50;99.90;;;;;;4981501;28;20642;-77
2021/05/12 00:49:38;;;;;;;3.75;2.97;;;13.50;99.90;;;;;;4986611;28;20279;-77
2021/05/12 00:52:03;;;;;;;5.18;3.88;;;13.50;99.90;;;;;;4981549;28;20188;-77
2021/05/12 00:54:31;;;;;;;6.18;4.28;;;13.50;99.90;;;;;;4983046;28;20188;-78
2021/05/12 00:56:57;;;;;;;4.20;3.47;;;13.50;99.90;;;;;;4983456;28;20227;-78
2021/05/12 00:59:30;;;;;;;4.30;3.60;;;13.50;99.90;;;;;;4980010;28;20650;-78
2021/05/12 01:01:56;;;;;;;5.47;4.10;;;13.50;99.90;;;;;;4981828;28;20223;-76
2021/05/12 01:04:22;;;;;;;9.18;4.50;;;13.50;99.90;;;;;;4976821;28;20193;-77
2021/05/12 01:06:48;;;;;;;5.65;3.55;;;13.50;99.90;;;;;;4976885;28;20196;-77
2021/05/12 01:09:13;;;;;;;4.88;3.85;;;13.60;99.90;;;;;;4979680;28;20219;-78
2021/05/12 01:11:40;;;;;;;5.07;4.00;;;13.50;99.90;;;;;;4980026;28;20223;-78
2021/05/12 01:14:06;;;;;;;5.43;3.92;;;13.50;99.90;;;;;;4978672;28;20583;-79
2021/05/12 01:16:31;;;;;;;6.40;4.60;;;13.50;99.90;;;;;;4978593;28;20200;-78
2021/05/12 01:18:57;;;;;;;5.32;4.53;;;13.50;99.90;;;;;;4986410;28;20204;-78
2021/05/12 01:21:23;;;;;;;6.45;4.55;;;13.40;99.90;;;;;;4982323;28;20191;-78
2021/05/12 01:23:49;;;;;;;6.90;5.32;;;13.40;99.90;;;;;;4978583;28;20746;-77
2021/05/12 01:26:19;;;;;;;8.52;5.75;;;13.40;99.90;;;;;;4969677;28;20205;-76
2021/05/12 01:28:47;;;;;;;8.95;6.10;;;13.40;99.90;;;;;;4967547;28;20693;-78
2021/05/12 01:31:18;;;;;;;10.88;6.72;;;13.40;99.90;;;;;;4976589;28;20192;-77
2021/05/12 01:33:45;;;;;;;11.90;7.70;;;13.40;99.90;;;;;;4968987;28;20185;-76
2021/05/12 01:36:12;;;;;;;10.38;7.38;;;13.50;99.90;;;;;;4972573;28;20299;-76
2021/05/12 01:38:40;;;;;;;10.80;7.72;;;13.40;99.90;;;;;;4969303;28;20209;-77
2021/05/12 01:41:06;;;;;;;9.32;6.95;;;13.40;99.90;;;;;;4965811;28;20184;-77
2021/05/12 01:43:34;;;;;;;9.90;7.53;;;13.40;99.90;;;;;;4972409;28;20196;-77
2021/05/12 01:46:00;;;;;;;10.88;6.65;;;13.40;99.90;;;;;;4970039;28;20207;-76
2021/05/12 01:48:28;;;;;;;8.57;6.65;;;13.40;99.90;;;;;;4964779;28;20496;-77
2021/05/12 01:50:54;;;;;;;10.63;6.97;;;13.40;99.90;;;;;;4971444;28;20200;-77
2021/05/12 01:53:20;;;;;;;11.40;7.38;;;13.40;99.90;;;;;;4971041;28;20188;-77
2021/05/12 01:55:50;;;;;;;9.45;6.88;;;13.30;99.90;;;;;;4967743;28;20227;-77
2021/05/12 01:58:16;;;;;;;9.30;7.03;;;13.30;99.90;;;;;;4969980;28;20203;-78
2021/05/12 02:00:44;;;;;;;10.02;7.43;;;13.30;99.90;;;;;;4966504;28;20224;-78
2021/05/12 02:03:10;;;;;;;9.52;7.18;;;13.30;99.90;;;;;;4966908;28;20263;-77
2021/05/12 02:05:37;;;;;;;11.82;7.30;;;13.20;99.90;;;;;;4967629;28;20177;-77
2021/05/12 02:08:07;;;;;;;9.25;6.75;;;13.20;99.90;;;;;;4978940;28;20203;-78
2021/05/12 02:10:33;;;;;;;11.80;6.97;;;13.20;99.90;;;;;;4965713;28;20196;-77
2021/05/12 02:12:59;;;;;;;10.65;6.85;;;13.20;99.90;;;;;;4965991;28;20196;-77
2021/05/12 02:15:25;;;;;;;10.45;6.88;;;13.20;99.90;;;;;;4966382;28;20208;-77
2021/05/12 02:17:51;;;;;;;11.25;7.32;;;13.20;99.90;;;;;;4972862;28;20200;-77
2021/05/12 02:20:24;;;;;;;8.85;6.40;;;13.20;99.90;;;;;;4975495;28;20189;-77
2021/05/12 02:22:49;;;;;;;9.02;6.53;;;13.10;99.90;;;;;;4978457;28;20605;-78
2021/05/12 02:25:15;;;;;;;9.00;6.18;;;13.20;99.90;;;;;;4969743;28;20180;-78
2021/05/12 02:27:41;;;;;;;10.15;6.57;;;13.20;99.90;;;;;;4969685;28;20288;-76
2021/05/12 02:30:09;;;;;;;11.30;7.10;;;13.10;99.90;;;;;;4972865;28;20208;-77
2021/05/12 02:32:36;;;;;;;10.30;6.63;;;13.10;99.90;;;;;;4975285;28;20345;-78
2021/05/12 02:35:04;;;;;;;9.50;6.50;;;13.20;99.90;;;;;;4970425;28;20176;-78
2021/05/12 02:37:29;;;;;;;9.63;6.68;;;13.10;99.90;;;;;;4968080;28;20614;-76
2021/05/12 02:39:55;;;;;;;8.98;6.20;;;13.10;99.90;;;;;;4972981;28;20212;-77
2021/05/12 02:42:21;;;;;;;10.88;7.00;;;13.10;99.90;;;;;;4976637;28;20189;-78
2021/05/12 02:44:47;;;;;;;9.75;6.20;;;13.10;99.90;;;;;;4978808;28;20275;-78
2021/05/12 02:47:13;;;;;;;10.57;7.05;;;13.10;99.90;;;;;;4975031;28;20296;-77
2021/05/12 02:49:39;;;;;;;12.20;8.02;;;13.10;99.90;;;;;;4969291;28;20185;-77
2021/05/12 02:52:05;;;;;;;10.95;7.22;;;13.10;99.90;;;;;;4971875;28;20561;-77
2021/05/12 02:54:32;;;;;;;7.75;5.88;;;13.10;99.90;;;;;;4969772;28;20527;-78
2021/05/12 02:56:57;;;;;;;9.65;6.78;;;13.10;99.90;;;;;;4973104;28;20231;-78
2021/05/12 02:59:23;;;;;;;12.05;8.20;;;13.00;99.90;;;;;;4967898;28;20665;-78
2021/05/12 03:01:49;;;;;;;10.65;7.20;;;13.00;99.90;;;;;;4969140;28;20185;-77
2021/05/12 03:04:14;;;;;;;8.95;6.43;;;13.10;99.90;;;;;;4976410;28;20678;-77
2021/05/12 03:06:40;;;;;;;11.50;6.50;;;13.10;99.90;;;;;;4979677;28;20196;-78
2021/05/12 03:09:07;;;;;;;10.63;7.25;;;13.10;99.90;;;;;;4969914;28;20188;-77
2021/05/12 03:11:33;;;;;;;9.98;7.15;;;13.00;99.90;;;;;;4978808;28;20180;-76
2021/05/12 03:14:00;;;;;;;10.75;6.72;;;13.10;99.90;;;;;;4975512;28;20750;-77
2021/05/12 03:16:26;;;;;;;9.60;6.50;;;13.00;99.90;;;;;;4970139;28;20216;-77
2021/05/12 03:18:51;;;;;;;9.23;6.78;;;13.10;99.90;;;;;;4983296;28;20201;-77
2021/05/12 03:21:17;;;;;;;12.32;7.55;;;13.00;99.90;;;;;;4971403;28;20192;-76
2021/05/12 03:23:43;;;;;;;11.13;6.80;;;13.00;99.90;;;;;;4976150;28;20592;-77
2021/05/12 03:26:08;;;;;;;9.48;6.05;;;13.00;99.90;;;;;;4971442;28;20264;-77
2021/05/12 03:28:34;;;;;;;9.70;6.90;;;13.00;99.90;;;;;;4975297;28;20185;-77
2021/05/12 03:30:59;;;;;;;9.77;6.18;;;13.00;99.90;;;;;;4970610;28;20267;-77
2021/05/12 03:33:25;;;;;;;9.95;6.60;;;13.00;99.90;;;;;;4973874;28;20203;-77
2021/05/12 03:35:51;;;;;;;12.55;6.45;;;13.00;99.90;;;;;;4973368;28;20204;-77
2021/05/12 03:38:16;;;;;;;12.82;7.10;;;13.00;99.90;;;;;;4976118;28;20406;-77
2021/05/12 03:40:42;;;;;;;10.35;7.32;;;13.00;99.90;;;;;;4980584;28;20235;-77
2021/05/12 03:43:09;;;;;;;12.55;6.88;;;13.00;99.90;;;;;;4968333;28;20667;-77
2021/05/12 03:45:34;;;;;;;11.43;7.55;;;12.90;99.90;;;;;;4968082;28;20611;-77
2021/05/12 03:48:00;;;;;;;9.52;6.88;;;13.00;99.90;;;;;;4968363;28;20173;-78
2021/05/12 03:50:28;;;;;;;9.65;6.50;;;12.90;99.90;;;;;;4971766;28;20211;-78
2021/05/12 03:52:54;;;;;;;9.85;6.90;;;13.00;99.90;;;;;;4977097;28;20184;-78
2021/05/12 03:55:20;;;;;;;9.73;5.97;;;13.00;99.90;;;;;;4977491;28;20188;-78
2021/05/12 03:57:45;;;;;;;9.95;6.57;;;13.00;99.90;;;;;;4970430;28;20219;-78
2021/05/12 04:00:13;;;;;;;8.48;5.97;;;13.10;99.90;;;;;;4969804;28;20553;-77
2021/05/12 04:02:40;;;;;;;10.43;6.97;;;13.10;99.90;;;;;;4973641;28;20185;-76
2021/05/12 04:05:06;;;;;;;10.63;6.50;;;13.00;99.90;;;;;;4966945;28;20549;-77
2021/05/12 04:07:32;;;;;;;11.55;6.93;;;13.00;99.90;;;;;;4964820;28;20287;-76
2021/05/12 04:09:57;;;;;;;7.80;5.40;;;13.00;99.90;;;;;;4967193;28;20326;-76
2021/05/12 04:12:23;;;;;;;8.63;5.78;;;13.10;99.90;;;;;;4971775;28;20354;-76
2021/05/12 04:14:49;;;;;;;7.35;5.72;;;13.00;99.90;;;;;;4966657;28;20209;-76
2021/05/12 04:17:15;;;;;;;8.38;6.40;;;13.00;99.90;;;;;;4972308;28;20764;-75
2021/05/12 04:19:41;;;;;;;9.50;6.38;;;13.10;99.90;;;;;;4966422;28;20232;-77
2021/05/12 04:22:06;;;;;;;9.23;6.50;;;13.10;99.90;;;;;;4968395;28;20192;-77
2021/05/12 04:24:32;;;;;;;9.18;6.32;;;13.00;99.90;;;;;;4971661;28;20180;-76
2021/05/12 04:26:58;;;;;;;12.68;7.40;;;13.00;99.90;;;;;;4975779;28;20211;-77
2021/05/12 04:29:23;;;;;;;8.25;5.70;;;13.00;99.90;;;;;;4970874;28;20195;-77
2021/05/12 04:31:49;;;;;;;8.65;5.55;;;13.00;99.90;;;;;;4971149;28;20628;-76
2021/05/12 04:34:15;;;;;;;10.23;6.78;;;13.00;99.90;;;;;;4971693;28;20347;-76
2021/05/12 04:36:40;;;;;;;9.18;5.90;;;13.00;99.90;;;;;;4969440;28;20302;-76
2021/05/12 04:39:06;;;;;;;11.43;6.57;;;13.00;99.90;;;;;;4967167;28;20200;-77
2021/05/12 04:41:33;;;;;;;9.95;6.68;;;13.00;99.90;;;;;;4964617;28;20181;-76
2021/05/12 04:43:59;;;;;;;7.90;5.93;;;13.00;99.90;;;;;;4970658;28;20339;-77
2021/05/12 04:46:25;;;;;;;8.25;6.15;;;13.00;99.90;;;;;;4968106;28;20834;-77
2021/05/12 04:48:52;;;;;;;8.00;5.60;;;13.00;99.90;;;;;;4964426;28;20551;-77
2021/05/12 04:51:19;;;;;;;9.43;5.80;;;13.00;99.90;;;;;;4976445;28;20784;-76
2021/05/12 04:53:44;;;;;;;12.82;6.47;;;13.10;99.90;;;;;;4974964;28;20446;-77
2021/05/12 04:56:10;;;;;;;10.30;6.78;;;13.10;99.90;;;;;;4972300;28;20264;-77
2021/05/12 04:58:36;;;;;;;10.35;6.95;;;13.10;99.90;;;;;;4966239;28;20204;-77
2021/05/12 05:01:02;;;;;;;11.32;7.03;;;13.00;99.90;;;;;;4967225;28;20192;-76
2021/05/12 05:03:27;;;;;;;11.75;7.90;;;13.00;99.90;;;;;;4965487;28;20196;-76
2021/05/12 05:05:53;;;;;;;8.70;6.90;;;13.10;99.90;;;;;;4968856;28;20205;-78
2021/05/12 05:08:18;;;;;;;11.80;6.75;;;13.00;99.90;;;;;;4964629;28;20193;-77
2021/05/12 05:10:44;;;;;;;9.57;6.85;;;13.00;99.90;;;;;;4966195;28;20272;-77
2021/05/12 05:13:10;;;;;;;9.57;6.80;;;13.00;99.90;;;;;;4968098;28;20181;-77
2021/05/12 05:15:35;;;;;;;10.77;6.82;;;13.00;99.90;;;;;;4966177;28;20673;-77
2021/05/12 05:18:01;;;;;;;10.35;7.13;;;13.00;99.90;;;;;;4975659;28;20200;-77
2021/05/12 05:20:29;;;;;;;9.52;6.82;;;13.00;99.90;;;;;;4972008;28;20195;-76
2021/05/12 05:22:56;;;;;;;10.30;7.00;;;13.00;99.90;;;;;;4973918;28;20614;-77
2021/05/12 05:25:21;;;;;;;13.23;8.00;;;13.10;99.90;;;;;;4972528;28;20195;-77
2021/05/12 05:27:47;;;;;;;9.63;6.47;;;13.10;99.90;;;;;;4964967;28;20205;-77
2021/05/12 05:30:13;;;;;;;11.40;7.82;;;13.10;99.90;;;;;;4965703;28;20528;-77
2021/05/12 05:32:38;;;;;;;10.13;7.60;;;13.20;99.90;;;;;;4965275;28;20211;-77
2021/05/12 05:35:06;;;;;;;8.93;6.93;;;13.20;99.90;;;;;;4964350;28;20671;-76
2021/05/12 05:37:32;;;;;;;10.10;7.07;;;13.20;99.90;;;;;;4963314;28;21121;-77
2021/05/12 05:39:58;;;;;;;9.07;6.72;;;13.30;99.90;;;;;;4966285;28;20306;-77
2021/05/12 05:42:23;;;;;;;9.65;6.95;;;13.40;99.90;;;;;;4974643;28;20263;-77
2021/05/12 05:44:49;;;;;;;9.20;6.40;;;13.40;99.90;;;;;;4966373;28;20300;-77
2021/05/12 05:47:15;;;;;;;11.18;7.35;;;13.40;99.90;;;;;;4968863;28;20205;-77
2021/05/12 05:49:40;;;;;;;9.13;7.28;;;13.40;99.90;;;;;;4965072;28;20193;-76
2021/05/12 05:52:06;;;;;;;9.55;6.78;;;13.50;99.90;;;;;;4967597;28;20181;-78
2021/05/12 05:54:32;;;;;;;11.38;6.90;;;13.50;99.90;;;;;;4965763;28;20598;-76
2021/05/12 05:57:05;;;;;;;9.32;6.55;;;13.50;99.90;;;;;;4971795;28;20220;-76
2021/05/12 05:59:32;;;;;;;10.23;6.70;;;13.50;99.90;;;;;;4980818;28;20375;-77
2021/05/12 06:02:00;;;;;;;10.02;6.78;;;13.50;99.90;;;;;;4980282;28;20260;-78
2021/05/12 06:04:26;;;;;;;10.52;6.28;;;13.50;99.90;;;;;;4982334;28;20177;-77
2021/05/12 06:06:54;;;;;;;10.65;6.60;;;13.50;99.90;;;;;;4980022;28;20476;-77
2021/05/12 06:09:20;;;;;;;10.70;6.22;;;13.50;99.90;;;;;;4980263;28;20728;-75
2021/05/12 06:11:47;;;;;;;8.98;6.18;;;13.60;99.90;;;;;;4980686;28;20181;-76
2021/05/12 06:14:12;;;;;;;9.52;6.63;;;13.60;99.90;;;;;;4979040;28;21048;-77
2021/05/12 06:16:41;;;;;;;9.50;6.03;;;13.70;99.90;;;;;;4981270;28;20541;-77
2021/05/12 06:19:15;;;;;;;9.43;6.70;;;13.60;99.90;;;;;;4981218;28;20670;-77
2021/05/12 06:21:41;;;;;;;10.15;6.18;;;13.70;99.90;;;;;;4978841;28;20177;-77
2021/05/12 06:24:07;;;;;;;11.10;6.78;;;13.60;99.90;;;;;;4972488;28;20426;-76
2021/05/12 06:26:37;;;;;;;10.77;6.53;;;13.60;99.90;;;;;;4967796;28;20675;-76
2021/05/12 06:29:04;;;;;;;9.55;6.28;;;13.60;99.90;;;;;;4980909;28;20398;-78
2021/05/12 06:31:30;;;;;;;12.32;7.20;;;13.60;99.90;;;;;;4978776;28;20192;-78
2021/05/12 06:33:57;;;;;;;10.57;6.43;;;13.70;99.90;;;;;;4980767;28;20242;-77
2021/05/12 06:36:23;;;;;;;10.10;6.55;;;13.60;99.90;;;;;;4978994;28;20213;-77
2021/05/12 06:38:51;;;;;;;12.13;7.72;;;13.70;99.90;;;;;;4981481;28;20219;-77
2021/05/12 06:41:17;;;;;;;10.10;6.72;;;13.70;99.90;;;;;;4979888;28;20239;-76
2021/05/12 06:43:43;;;;;;;11.23;7.32;;;13.80;99.90;;;;;;4974088;28;20184;-78
2021/05/12 06:46:09;;;;;;;10.55;6.55;;;13.70;99.90;;;;;;4975066;28;20244;-75
2021/05/12 06:48:36;;;;;;;9.32;6.88;;;13.90;99.90;;;;;;4978374;28;20231;-77
2021/05/12 06:51:03;;;;;;;9.65;6.45;;;13.90;99.90;;;;;;4981325;28;20537;-76
2021/05/12 06:53:35;;;;;;;10.80;6.57;;;13.90;99.90;;;;;;4975707;28;21207;-78
2021/05/12 06:56:03;;;;;;;11.13;6.90;;;13.90;99.90;;;;;;4976903;28;20203;-78
2021/05/12 06:58:30;;;;;;;11.32;6.28;;;13.90;99.90;;;;;;4974763;28;20720;-77
2021/05/12 07:00:56;;;;;;;9.23;6.88;;;13.90;99.90;;;;;;4976048;28;20303;-75
2021/05/12 07:03:23;;;;;;;11.63;7.07;;;13.90;99.90;;;;;;4979302;28;20283;-76
2021/05/12 07:05:51;;;;;;;11.52;6.32;;;13.90;99.90;;;;;;4974414;28;20648;-75
2021/05/12 07:08:18;;;;;;;11.68;7.22;;;14.10;99.90;;;;;;4978593;28;20197;-75
2021/05/12 07:10:44;;;;;;;11.77;7.20;;;14.20;99.90;;;;;;4977466;28;20267;-76
2021/05/12 07:13:10;;;;;;;12.05;7.28;;;14.10;99.90;;;;;;4980985;28;20295;-76
2021/05/12 07:15:38;;;;;;;11.10;7.28;;;14.10;99.90;;;;;;4983357;28;20208;-76
2021/05/12 07:18:04;;;;;;;9.30;6.88;;;14.00;99.90;;;;;;4981223;28;20550;-76
2021/05/12 07:20:31;;;;;;;16.08;8.32;;;14.00;99.90;;;;;;4981369;28;20173;-76
2021/05/12 07:23:09;;;;;;;11.57;7.15;;;14.00;99.90;;;;;;4984353;28;20204;-76
2021/05/12 07:25:36;;;;;;;10.75;6.70;;;14.00;99.90;;;;;;4980901;28;20203;-76
2021/05/12 07:28:03;;;;;;;10.02;6.60;;;14.10;99.90;;;;;;4981500;28;20639;-77
2021/05/12 07:30:29;;;;;;;12.40;7.20;;;14.00;99.90;;;;;;4978297;28;20187;-76
2021/05/12 07:32:55;;;;;;;9.55;6.35;;;13.90;99.90;;;;;;4980392;28;20185;-78
2021/05/12 07:35:22;;;;;;;9.68;6.32;;;13.80;99.90;;;;;;4978936;28;20177;-77
2021/05/12 07:37:47;;;;;;;12.23;7.63;;;13.80;99.90;;;;;;4977734;28;20208;-77
2021/05/12 07:40:16;;;;;;;7.90;5.63;;;13.80;99.90;;;;;;4977475;28;20238;-78
2021/05/12 07:42:44;;;;;;;11.77;7.32;;;13.70;99.90;;;;;;4976121;28;20172;-77
2021/05/12 07:45:12;;;;;;;10.98;7.50;;;13.70;99.90;;;;;;4980339;28;20173;-77
2021/05/12 07:47:38;;;;;;;11.63;7.28;;;13.70;99.90;;;;;;4977474;28;20204;-77
2021/05/12 07:50:10;;;;;;;9.70;6.50;;;13.70;99.90;;;;;;4981159;28;20195;-78
2021/05/12 07:52:36;;;;;;;9.80;6.22;;;13.70;99.90;;;;;;4997011;28;20193;-76
2021/05/12 07:55:03;;;;;;;10.88;6.93;;;13.80;99.90;;;;;;4979820;28;20655;-74
2021/05/12 07:57:29;;;;;;;12.27;7.50;;;13.80;99.90;;;;;;4984346;28;20457;-75
2021/05/12 07:59:55;;;;;;;9.85;6.65;;;13.80;99.90;;;;;;4978087;28;20208;-76
2021/05/12 08:02:22;;;;;;;12.18;6.55;;;13.70;99.90;;;;;;4978387;28;20173;-76
2021/05/12 08:04:48;;;;;;;10.98;7.00;;;13.70;99.90;;;;;;4980327;28;20181;-73
2021/05/12 08:07:16;;;;;;;10.95;7.07;;;13.80;99.90;;;;;;4973514;28;20236;-75
2021/05/12 08:09:42;;;;;;;8.25;6.03;;;13.90;99.90;;;;;;4974786;28;20285;-75
2021/05/12 08:12:08;;;;;;;11.85;6.88;;;13.90;99.90;;;;;;4977244;28;20180;-76
2021/05/12 08:14:34;;;;;;;9.98;6.18;;;14.00;99.90;;;;;;4979168;28;20266;-75
2021/05/12 08:16:59;;;;;;;9.98;6.32;;;14.10;99.90;;;;;;4977868;28;20500;-76
2021/05/12 08:19:28;;;;;;;8.73;5.82;;;14.10;99.90;;;;;;4977029;28;20639;-77
2021/05/12 08:21:55;;;;;;;9.75;5.88;;;14.20;99.90;;;;;;4977700;28;20297;-76
2021/05/12 08:24:20;;;;;;;8.02;6.05;;;14.10;99.90;;;;;;4977804;28;20258;-76
2021/05/12 08:26:47;;;;;;;10.50;5.78;;;14.20;99.90;;;;;;4978576;28;20204;-78
2021/05/12 08:29:22;;;;;;;7.45;5.68;;;14.30;99.90;;;;;;4978996;28;20283;-75
2021/05/12 08:31:47;;;;;;;6.75;5.63;;;14.40;99.90;;;;;;4970942;28;20230;-79
2021/05/12 08:34:13;;;;;;;8.48;5.38;;;14.50;99.90;;;;;;4973277;28;20191;-77
2021/05/12 08:36:39;;;;;;;8.02;5.38;;;14.70;99.90;;;;;;4975894;28;20566;-76
2021/05/12 08:39:07;;;;;;;7.90;4.53;;;14.70;99.90;;;;;;4973991;28;20570;-74
2021/05/12 08:41:35;;;;;;;6.85;5.28;;;14.80;99.90;;;;;;4975015;28;20181;-78
2021/05/12 08:44:02;;;;;;;7.30;4.90;;;14.90;99.90;;;;;;4978988;28;20267;-77
2021/05/12 08:46:30;;;;;;;6.20;4.80;;;15.10;99.90;;;;;;4972714;28;20208;-76
2021/05/12 08:48:57;;;;;;;5.05;3.88;;;15.10;99.90;;;;;;4970857;28;20188;-76
2021/05/12 08:51:25;;;;;;;4.63;3.83;;;15.20;99.90;;;;;;4975611;28;20620;-76
2021/05/12 08:53:56;;;;;;;5.68;4.15;;;15.30;99.90;;;;;;4979311;28;20179;-77
2021/05/12 08:56:22;;;;;;;5.43;4.05;;;15.30;99.90;;;;;;4977286;28;20220;-76
2021/05/12 08:58:49;;;;;;;5.07;4.00;;;15.30;99.90;;;;;;4977598;28;20197;-76
2021/05/12 09:01:18;;;;;;;5.70;3.50;;;15.10;99.90;;;;;;4980089;28;20188;-75
2021/05/12 09:03:46;;;;;;;5.15;3.90;;;15.10;99.90;;;;;;4979162;28;20177;-78
2021/05/12 09:06:13;;;;;;;5.75;4.32;;;14.90;99.90;;;;;;4979262;28;20912;-77
2021/05/12 09:08:40;;;;;;;5.43;4.05;;;14.80;99.90;;;;;;4975754;28;20187;-76
2021/05/12 09:11:08;;;;;;;4.15;3.30;;;14.70;99.90;;;;;;4977833;28;20289;-76
2021/05/12 09:13:43;;;;;;;5.70;3.47;;;14.70;99.90;;;;;;4977970;28;20199;-74
2021/05/12 09:16:24;;;;;;;5.10;3.45;;;14.70;99.90;;;;;;4959521;28;20327;-78
2021/05/12 09:19:11;;;;;;;6.13;4.13;;;14.80;99.90;;;;;;4980951;28;20207;-76
2021/05/12 09:21:47;;;;;;;5.90;4.43;;;14.90;99.90;;;;;;4985469;28;20511;-76
2021/05/12 09:24:23;;;;;;;4.90;3.95;;;14.80;99.90;;;;;;4981834;28;20192;-78
2021/05/12 09:26:50;;;;;;;5.20;4.25;;;14.80;99.90;;;;;;4974935;28;20200;-77
2021/05/12 09:29:26;;;;;;;4.82;3.60;;;14.80;99.90;;;;;;4975090;28;20238;-79
2021/05/12 09:32:07;;;;;;;6.63;3.70;;;14.70;99.90;;;;;;4978407;28;20315;-77
2021/05/12 09:34:57;;;;;;;4.50;3.55;;;14.80;99.90;;;;;;4985983;28;20188;-78
2021/05/12 09:37:29;;;;;;;7.32;3.78;;;14.90;99.90;;;;;;4978060;28;20618;-77
2021/05/12 09:39:56;;;;;;;4.10;3.05;;;15.10;99.90;;;;;;4993740;28;20232;-77
2021/05/12 09:42:23;;;;;;;4.47;3.47;;;15.20;99.90;;;;;;4979450;28;20185;-77
2021/05/12 09:45:08;;;;;;;5.18;3.17;;;15.40;99.90;;;;;;4975084;28;20267;-77
2021/05/12 09:47:34;;;;;;;3.22;2.75;;;15.40;99.90;;;;;;4977716;28;20228;-79
2021/05/12 09:50:11;;;;;;;3.10;2.78;;;15.50;99.90;;;;;;4976565;28;20248;-77
2021/05/12 09:52:37;;;;;;;3.88;3.15;;;15.80;99.90;;;;;;4993468;28;20184;-77
2021/05/12 09:55:05;;;;;;;3.45;2.95;;;15.80;99.90;;;;;;4975852;28;20233;-79
2021/05/12 09:57:31;;;;;;;4.13;3.17;;;16.00;99.90;;;;;;4975690;28;20285;-77
2021/05/12 09:59:57;;;;;;;3.55;3.10;;;16.10;99.90;;;;;;4975897;28;20219;-78
2021/05/12 10:02:22;;;;;;;3.45;2.90;;;16.30;99.90;;;;;;4969556;28;20192;-77
2021/05/12 10:04:50;;;;;;;3.47;3.03;;;16.40;99.90;;;;;;4972956;28;20208;-77
2021/05/12 10:07:18;;;;;;;2.97;2.38;;;16.30;99.90;;;;;;4977403;28;20209;-78
2021/05/12 10:09:45;;;;;;;3.20;2.50;;;16.20;99.90;;;;;;4977114;28;20726;-77
2021/05/12 10:12:18;;;;;;;3.17;2.33;;;15.90;99.90;;;;;;4974473;28;20225;-76
2021/05/12 10:14:57;;;;;;;2.60;2.28;;;15.70;99.90;;;;;;4980554;28;20796;-77
2021/05/12 10:17:24;;;;;;;2.92;2.63;;;15.60;99.90;;;;;;4974730;28;20205;-77
2021/05/12 10:19:50;;;;;;;2.67;2.30;;;15.50;99.90;;;;;;4976567;28;20389;-78
2021/05/12 10:22:18;;;;;;;2.92;2.65;;;15.50;99.90;;;;;;4973236;28;20684;-78
2021/05/12 10:24:47;;;;;;;2.67;2.42;;;15.70;99.90;;;;;;4978738;28;20272;-78
2021/05/12 10:27:26;;;;;;;3.00;2.60;;;15.90;99.90;;;;;;4980691;28;20219;-77
2021/05/12 10:29:54;;;;;;;3.20;2.72;;;16.10;99.90;;;;;;4976362;28;20692;-78
2021/05/12 10:32:25;;;;;;;2.55;1.92;;;16.00;99.90;;;;;;4973511;28;20260;-76
2021/05/12 10:35:10;;;;;;;2.15;1.95;;;15.90;99.90;;;;;;4973671;28;20269;-77
2021/05/12 10:37:41;;;;;;;3.35;2.33;;;15.70;99.90;;;;;;4975973;28;20211;-77
2021/05/12 10:40:46;;;;;;;2.30;2.05;;;15.90;99.90;;;;;;4972661;28;20691;-76
2021/05/12 10:45:54;;;;;;;2.67;1.88;;;16.20;99.90;;;;;;4948668;29;20244;-76
2021/05/12 10:48:25;;;;;;;2.95;2.17;;;16.20;99.90;;;;;;4966541;28;20259;-77
2021/05/12 10:50:51;;;;;;;2.10;1.90;;;16.10;99.90;;;;;;4977791;28;20216;-78
2021/05/12 10:53:34;;;;;;;2.90;2.20;;;15.90;99.90;;;;;;4983253;28;21057;-78
2021/05/12 10:56:03;;;;;;;2.08;1.80;;;15.80;99.90;;;;;;4980026;28;20200;-78
2021/05/12 10:58:38;;;;;;;2.80;2.15;;;15.60;99.90;;;;;;4981221;28;20302;-78
2021/05/12 11:01:06;;;;;;;2.25;1.95;;;15.60;99.90;;;;;;4982281;28;20184;-77
2021/05/12 11:03:50;;;;;;;2.75;2.03;;;15.60;99.90;;;;;;4983528;28;20184;-78
2021/05/12 11:06:17;;;;;;;2.47;2.03;;;15.60;99.90;;;;;;4979636;28;20212;-76
2021/05/12 11:09:12;;;;;;;2.08;1.80;;;15.70;99.90;;;;;;4984041;28;20192;-78
2021/05/12 11:11:38;;;;;;;2.58;2.05;;;15.70;99.90;;;;;;4977694;28;20223;-77
2021/05/12 11:14:22;;;;;;;2.03;1.80;;;15.90;99.90;;;;;;4976104;28;20207;-77
2021/05/12 11:17:13;;;;;;;2.95;2.05;;;16.00;99.90;;;;;;4981254;28;20201;-77
2021/05/12 11:19:42;;;;;;;1.88;1.73;;;16.00;99.90;;;;;;4978370;28;20299;-76
2021/05/12 11:22:35;;;;;;;2.30;2.10;;;16.10;99.90;;;;;;4977280;28;20184;-76
2021/05/12 11:25:09;;;;;;;2.72;2.20;;;16.20;99.90;;;;;;4983115;28;20184;-77
2021/05/12 11:32:34;;;;;;;3.33;3.03;;;16.30;99.90;;;;;;4980225;28;20193;-78
2021/05/12 11:35:01;;;;;;;3.05;2.75;;;16.20;99.90;;;;;;4982832;28;20181;-77
2021/05/12 11:37:27;;;;;;;3.42;2.83;;;16.00;99.90;;;;;;4981051;28;20205;-77
2021/05/12 11:39:56;;;;;;;3.88;3.22;;;15.80;99.90;;;;;;4986582;28;20205;-77
2021/05/12 11:42:30;;;;;;;3.45;2.63;;;15.90;99.90;;;;;;4982304;28;20275;-77
2021/05/12 11:45:17;;;;;;;4.13;3.15;;;16.00;99.90;;;;;;4981024;28;20220;-77
2021/05/12 11:47:57;;;;;;;3.80;2.85;;;15.90;99.90;;;;;;4979927;28;20312;-78
2021/05/12 11:50:25;;;;;;;3.53;2.90;;;16.00;99.90;;;;;;4981910;28;20176;-78
2021/05/12 11:52:51;;;;;;;3.80;3.00;;;16.10;99.90;;;;;;4980044;28;20173;-78
2021/05/12 11:55:25;;;;;;;4.22;2.72;;;16.30;99.90;;;;;;4979815;28;20263;-76
2021/05/12 11:57:52;;;;;;;2.80;2.50;;;16.30;99.90;;;;;;4988476;28;20736;-76
2021/05/12 12:00:22;;;;;;;3.50;2.65;;;16.20;99.90;;;;;;4983349;28;20469;-76
2021/05/12 12:03:14;;;;;;;2.83;2.28;;;16.20;99.90;;;;;;4980544;28;20191;-78
2021/05/12 12:05:49;;;;;;;4.32;3.65;;;16.40;99.90;;;;;;4979912;28;20227;-76
2021/05/12 12:08:18;;;;;;;4.07;3.67;;;16.50;99.90;;;;;;4981947;28;20263;-76
2021/05/12 12:10:44;;;;;;;4.57;4.07;;;16.70;99.90;;;;;;4977112;28;20177;-78
2021/05/12 12:13:15;;;;;;;3.72;3.20;;;16.80;99.90;;;;;;4980688;28;20195;-77
2021/05/12 12:15:45;;;;;;;3.70;3.30;;;16.80;99.90;;;;;;4980452;28;20197;-77
2021/05/12 12:18:11;;;;;;;3.25;2.95;;;16.70;99.90;;;;;;4974769;28;20191;-77
2021/05/12 12:20:38;;;;;;;3.95;3.08;;;16.90;99.90;;;;;;4978201;28;21053;-76
2021/05/12 12:23:05;;;;;;;5.10;3.67;;;17.10;99.90;;;;;;4981701;28;20211;-78
2021/05/12 12:25:41;;;;;;;4.38;3.92;;;17.00;99.90;;;;;;4975292;28;20429;-77
2021/05/12 12:28:07;;;;;;;3.65;3.30;;;16.80;99.90;;;;;;4977472;28;20299;-76
2021/05/12 12:30:32;;;;;;;4.00;3.60;;;16.60;99.90;;;;;;4977849;28;20262;-77
2021/05/12 12:32:58;;;;;;;4.65;3.70;;;16.70;99.90;;;;;;4980172;28;20415;-77
2021/05/12 12:35:24;;;;;;;4.40;3.28;;;16.50;99.90;;;;;;4984810;28;20193;-78
2021/05/12 12:37:49;;;;;;;3.10;2.80;;;16.60;99.90;;;;;;4975957;28;20240;-78
2021/05/12 12:40:15;;;;;;;6.90;2.85;;;16.70;99.90;;;;;;4980444;28;20213;-78
2021/05/12 12:42:45;;;;;;;3.70;3.05;;;16.60;99.90;;;;;;4976019;28;20244;-76
2021/05/12 12:45:29;;;;;;;3.55;2.60;;;16.60;99.90;;;;;;4979740;28;20865;-77
2021/05/12 12:47:56;;;;;;;3.28;2.15;;;16.40;99.90;;;;;;4979155;28;20212;-78
2021/05/12 12:50:23;;;;;;;4.57;3.17;;;16.10;99.90;;;;;;4978302;28;20203;-77
2021/05/12 12:52:49;;;;;;;2.97;2.47;;;16.00;99.90;;;;;;4977979;28;20213;-77
2021/05/12 12:55:17;;;;;;;2.33;2.10;;;15.90;99.90;;;;;;4980451;28;20250;-77